sensor_id;sensor_type;location;lat;lon;timestamp;P1;durP1;ratioP1;P2;durP2;ratioP2
38222;SDS011;24024;51.186;6.458;2023-12-14T00:01:15;57.53;;;28.17;;
38222;SDS011;24024;51.186;6.458;2023-12-14T00:03:42;57.13;;;26.38;;
38222;SDS011;24024;51.186;6.458;2023-12-14T00:06:11;56.20;;;27.92;;
38222;SDS011;24024;51.186;6.458;2023-12-14T00:08:39;51.42;;;25.00;;
38222;SDS011;24024;51.186;6.458;2023-12-14T00:11:07;50.35;;;24.75;;
38222;SDS011;24024;51.186;6.458;2023-12-14T00:13:35;47.78;;;24.70;;
38222;SDS011;24024;51.186;6.458;2023-12-14T00:16:02;50.75;;;24.58;;
38222;SDS011;24024;51.186;6.458;2023-12-14T00:18:30;46.65;;;23.38;;
38222;SDS011;24024;51.186;6.458;2023-12-14T00:20:57;49.13;;;23.35;;
38222;SDS011;24024;51.186;6.458;2023-12-14T00:23:23;42.00;;;20.70;;
38222;SDS011;24024;51.186;6.458;2023-12-14T00:25:50;37.58;;;18.63;;
38222;SDS011;24024;51.186;6.458;2023-12-14T00:28:17;35.17;;;17.42;;
38222;SDS011;24024;51.186;6.458;2023-12-14T00:30:44;32.53;;;16.23;;
38222;SDS011;24024;51.186;6.458;2023-12-14T00:33:11;34.50;;;16.95;;
38222;SDS011;24024;51.186;6.458;2023-12-14T00:35:42;35.53;;;16.77;;
38222;SDS011;24024;51.186;6.458;2023-12-14T00:38:09;34.97;;;15.90;;
38222;SDS011;24024;51.186;6.458;2023-12-14T00:40:36;38.42;;;16.70;;
38222;SDS011;24024;51.186;6.458;2023-12-14T00:43:03;32.35;;;14.98;;
38222;SDS011;24024;51.186;6.458;2023-12-14T00:45:32;33.83;;;15.80;;
38222;SDS011;24024;51.186;6.458;2023-12-14T00:48:01;36.50;;;15.70;;
38222;SDS011;24024;51.186;6.458;2023-12-14T00:50:30;34.20;;;15.73;;
38222;SDS011;24024;51.186;6.458;2023-12-14T00:52:57;28.38;;;14.45;;
38222;SDS011;24024;51.186;6.458;2023-12-14T00:55:28;32.08;;;14.32;;
38222;SDS011;24024;51.186;6.458;2023-12-14T00:57:55;28.98;;;13.15;;
38222;SDS011;24024;51.186;6.458;2023-12-14T01:00:24;28.63;;;12.93;;
38222;SDS011;24024;51.186;6.458;2023-12-14T01:02:51;26.67;;;13.50;;
38222;SDS011;24024;51.186;6.458;2023-12-14T01:05:18;27.48;;;13.18;;
38222;SDS011;24024;51.186;6.458;2023-12-14T01:07:44;28.35;;;13.82;;
38222;SDS011;24024;51.186;6.458;2023-12-14T01:10:11;30.55;;;13.45;;
38222;SDS011;24024;51.186;6.458;2023-12-14T01:12:38;34.67;;;15.80;;
38222;SDS011;24024;51.186;6.458;2023-12-14T01:15:05;33.50;;;15.63;;
38222;SDS011;24024;51.186;6.458;2023-12-14T01:17:34;37.05;;;15.95;;
38222;SDS011;24024;51.186;6.458;2023-12-14T01:20:05;33.33;;;14.98;;
38222;SDS011;24024;51.186;6.458;2023-12-14T01:22:33;38.33;;;16.15;;
38222;SDS011;24024;51.186;6.458;2023-12-14T01:25:00;36.30;;;16.85;;
38222;SDS011;24024;51.186;6.458;2023-12-14T01:27:29;40.95;;;17.45;;
38222;SDS011;24024;51.186;6.458;2023-12-14T01:30:01;44.90;;;17.77;;
38222;SDS011;24024;51.186;6.458;2023-12-14T01:32:30;39.30;;;17.67;;
38222;SDS011;24024;51.186;6.458;2023-12-14T01:34:57;42.50;;;17.90;;
38222;SDS011;24024;51.186;6.458;2023-12-14T01:37:26;41.78;;;17.58;;
38222;SDS011;24024;51.186;6.458;2023-12-14T01:39:55;39.45;;;17.65;;
38222;SDS011;24024;51.186;6.458;2023-12-14T01:42:21;46.28;;;18.42;;
38222;SDS011;24024;51.186;6.458;2023-12-14T01:44:48;38.05;;;17.00;;
38222;SDS011;24024;51.186;6.458;2023-12-14T01:47:15;44.30;;;18.42;;
38222;SDS011;24024;51.186;6.458;2023-12-14T01:49:42;38.13;;;17.52;;
38222;SDS011;24024;51.186;6.458;2023-12-14T01:52:08;39.05;;;18.80;;
38222;SDS011;24024;51.186;6.458;2023-12-14T01:54:35;36.90;;;17.33;;
38222;SDS011;24024;51.186;6.458;2023-12-14T01:57:04;37.30;;;17.40;;
38222;SDS011;24024;51.186;6.458;2023-12-14T01:59:31;39.50;;;17.65;;
38222;SDS011;24024;51.186;6.458;2023-12-14T02:01:58;38.92;;;17.88;;
38222;SDS011;24024;51.186;6.458;2023-12-14T02:04:25;39.55;;;18.73;;
38222;SDS011;24024;51.186;6.458;2023-12-14T02:06:55;45.75;;;18.42;;
38222;SDS011;24024;51.186;6.458;2023-12-14T02:09:21;39.80;;;19.05;;
38222;SDS011;24024;51.186;6.458;2023-12-14T02:11:51;38.10;;;17.98;;
38222;SDS011;24024;51.186;6.458;2023-12-14T02:14:21;41.63;;;19.25;;
38222;SDS011;24024;51.186;6.458;2023-12-14T02:16:49;42.63;;;20.20;;
38222;SDS011;24024;51.186;6.458;2023-12-14T02:19:18;40.25;;;19.92;;
38222;SDS011;24024;51.186;6.458;2023-12-14T02:21:45;40.65;;;19.13;;
38222;SDS011;24024;51.186;6.458;2023-12-14T02:24:11;47.83;;;21.95;;
38222;SDS011;24024;51.186;6.458;2023-12-14T02:26:38;46.97;;;21.60;;
38222;SDS011;24024;51.186;6.458;2023-12-14T02:29:05;42.92;;;21.23;;
38222;SDS011;24024;51.186;6.458;2023-12-14T02:31:36;49.92;;;22.27;;
38222;SDS011;24024;51.186;6.458;2023-12-14T02:34:03;47.55;;;22.83;;
38222;SDS011;24024;51.186;6.458;2023-12-14T02:36:30;50.20;;;24.23;;
38222;SDS011;24024;51.186;6.458;2023-12-14T02:38:57;53.15;;;24.23;;
38222;SDS011;24024;51.186;6.458;2023-12-14T02:41:26;52.50;;;24.17;;
38222;SDS011;24024;51.186;6.458;2023-12-14T02:43:52;53.22;;;24.80;;
38222;SDS011;24024;51.186;6.458;2023-12-14T02:46:19;54.38;;;24.30;;
38222;SDS011;24024;51.186;6.458;2023-12-14T02:48:46;49.58;;;24.23;;
38222;SDS011;24024;51.186;6.458;2023-12-14T02:51:13;56.30;;;25.25;;
38222;SDS011;24024;51.186;6.458;2023-12-14T02:53:41;56.47;;;25.55;;
38222;SDS011;24024;51.186;6.458;2023-12-14T02:56:09;56.72;;;25.67;;
38222;SDS011;24024;51.186;6.458;2023-12-14T02:58:38;59.25;;;26.77;;
38222;SDS011;24024;51.186;6.458;2023-12-14T03:01:05;57.08;;;26.10;;
38222;SDS011;24024;51.186;6.458;2023-12-14T03:03:32;63.00;;;27.65;;
38222;SDS011;24024;51.186;6.458;2023-12-14T03:06:01;57.40;;;26.42;;
38222;SDS011;24024;51.186;6.458;2023-12-14T03:08:28;56.38;;;26.65;;
38222;SDS011;24024;51.186;6.458;2023-12-14T03:10:55;57.10;;;26.33;;
38222;SDS011;24024;51.186;6.458;2023-12-14T03:13:22;58.10;;;26.15;;
38222;SDS011;24024;51.186;6.458;2023-12-14T03:15:49;57.47;;;26.17;;
38222;SDS011;24024;51.186;6.458;2023-12-14T03:18:15;59.10;;;27.55;;
38222;SDS011;24024;51.186;6.458;2023-12-14T03:20:42;56.97;;;27.80;;
38222;SDS011;24024;51.186;6.458;2023-12-14T03:23:09;60.03;;;27.83;;
38222;SDS011;24024;51.186;6.458;2023-12-14T03:25:36;60.13;;;27.77;;
38222;SDS011;24024;51.186;6.458;2023-12-14T03:28:03;58.20;;;26.67;;
38222;SDS011;24024;51.186;6.458;2023-12-14T03:30:29;54.78;;;25.77;;
38222;SDS011;24024;51.186;6.458;2023-12-14T03:32:56;53.72;;;24.58;;
38222;SDS011;24024;51.186;6.458;2023-12-14T03:35:27;52.78;;;24.35;;
38222;SDS011;24024;51.186;6.458;2023-12-14T03:37:54;45.22;;;23.30;;
38222;SDS011;24024;51.186;6.458;2023-12-14T03:40:23;47.78;;;24.15;;
38222;SDS011;24024;51.186;6.458;2023-12-14T03:42:50;48.60;;;24.60;;
38222;SDS011;24024;51.186;6.458;2023-12-14T03:45:19;48.22;;;23.88;;
38222;SDS011;24024;51.186;6.458;2023-12-14T03:47:45;47.22;;;24.45;;
38222;SDS011;24024;51.186;6.458;2023-12-14T03:50:12;49.40;;;23.60;;
38222;SDS011;24024;51.186;6.458;2023-12-14T03:52:41;45.30;;;22.13;;
38222;SDS011;24024;51.186;6.458;2023-12-14T03:55:08;45.72;;;22.23;;
38222;SDS011;24024;51.186;6.458;2023-12-14T03:57:35;47.60;;;23.73;;
38222;SDS011;24024;51.186;6.458;2023-12-14T04:00:05;47.13;;;24.02;;
38222;SDS011;24024;51.186;6.458;2023-12-14T04:02:39;52.75;;;24.52;;
38222;SDS011;24024;51.186;6.458;2023-12-14T04:05:06;50.08;;;24.25;;
38222;SDS011;24024;51.186;6.458;2023-12-14T04:07:35;49.70;;;23.08;;
38222;SDS011;24024;51.186;6.458;2023-12-14T04:10:07;50.03;;;24.17;;
38222;SDS011;24024;51.186;6.458;2023-12-14T04:12:38;53.25;;;24.05;;
38222;SDS011;24024;51.186;6.458;2023-12-14T04:15:06;51.47;;;24.27;;
38222;SDS011;24024;51.186;6.458;2023-12-14T04:17:34;52.65;;;25.60;;
38222;SDS011;24024;51.186;6.458;2023-12-14T04:20:02;52.80;;;25.40;;
38222;SDS011;24024;51.186;6.458;2023-12-14T04:22:29;49.78;;;24.00;;
38222;SDS011;24024;51.186;6.458;2023-12-14T04:24:56;50.75;;;24.42;;
38222;SDS011;24024;51.186;6.458;2023-12-14T04:27:23;52.22;;;24.35;;
38222;SDS011;24024;51.186;6.458;2023-12-14T04:29:54;46.17;;;22.90;;
38222;SDS011;24024;51.186;6.458;2023-12-14T04:32:21;44.38;;;21.30;;
38222;SDS011;24024;51.186;6.458;2023-12-14T04:34:48;44.13;;;21.00;;
38222;SDS011;24024;51.186;6.458;2023-12-14T04:37:17;43.58;;;21.15;;
38222;SDS011;24024;51.186;6.458;2023-12-14T04:39:44;44.67;;;22.02;;
38222;SDS011;24024;51.186;6.458;2023-12-14T04:42:13;42.10;;;20.45;;
38222;SDS011;24024;51.186;6.458;2023-12-14T04:44:42;42.28;;;19.77;;
38222;SDS011;24024;51.186;6.458;2023-12-14T04:47:08;40.13;;;19.40;;
38222;SDS011;24024;51.186;6.458;2023-12-14T04:49:35;45.42;;;20.83;;
38222;SDS011;24024;51.186;6.458;2023-12-14T04:52:02;44.72;;;20.98;;
38222;SDS011;24024;51.186;6.458;2023-12-14T04:54:29;45.00;;;20.60;;
38222;SDS011;24024;51.186;6.458;2023-12-14T04:56:56;44.95;;;21.42;;
38222;SDS011;24024;51.186;6.458;2023-12-14T04:59:23;46.60;;;21.13;;
38222;SDS011;24024;51.186;6.458;2023-12-14T05:01:51;45.60;;;21.85;;
38222;SDS011;24024;51.186;6.458;2023-12-14T05:04:20;40.97;;;20.30;;
38222;SDS011;24024;51.186;6.458;2023-12-14T05:06:50;40.17;;;20.08;;
38222;SDS011;24024;51.186;6.458;2023-12-14T05:09:16;40.78;;;20.45;;
38222;SDS011;24024;51.186;6.458;2023-12-14T05:11:45;42.53;;;19.33;;
38222;SDS011;24024;51.186;6.458;2023-12-14T05:14:14;43.22;;;19.50;;
38222;SDS011;24024;51.186;6.458;2023-12-14T05:16:41;41.45;;;20.10;;
38222;SDS011;24024;51.186;6.458;2023-12-14T05:19:10;45.78;;;21.83;;
38222;SDS011;24024;51.186;6.458;2023-12-14T05:21:38;45.53;;;21.55;;
38222;SDS011;24024;51.186;6.458;2023-12-14T05:24:05;45.10;;;21.13;;
38222;SDS011;24024;51.186;6.458;2023-12-14T05:26:32;47.45;;;20.98;;
38222;SDS011;24024;51.186;6.458;2023-12-14T05:28:59;48.72;;;21.90;;
38222;SDS011;24024;51.186;6.458;2023-12-14T05:31:26;42.35;;;19.85;;
38222;SDS011;24024;51.186;6.458;2023-12-14T05:33:53;46.25;;;21.10;;
38222;SDS011;24024;51.186;6.458;2023-12-14T05:36:19;46.50;;;21.13;;
38222;SDS011;24024;51.186;6.458;2023-12-14T05:38:48;45.58;;;20.30;;
38222;SDS011;24024;51.186;6.458;2023-12-14T05:41:17;44.03;;;20.98;;
38222;SDS011;24024;51.186;6.458;2023-12-14T05:43:49;43.50;;;20.83;;
38222;SDS011;24024;51.186;6.458;2023-12-14T05:46:22;45.50;;;20.45;;
38222;SDS011;24024;51.186;6.458;2023-12-14T05:48:49;42.90;;;20.75;;
38222;SDS011;24024;51.186;6.458;2023-12-14T05:51:26;44.42;;;21.27;;
38222;SDS011;24024;51.186;6.458;2023-12-14T05:53:57;44.25;;;20.63;;
38222;SDS011;24024;51.186;6.458;2023-12-14T05:56:25;43.20;;;20.55;;
38222;SDS011;24024;51.186;6.458;2023-12-14T05:58:52;41.45;;;20.33;;
38222;SDS011;24024;51.186;6.458;2023-12-14T06:01:23;44.72;;;20.60;;
38222;SDS011;24024;51.186;6.458;2023-12-14T06:03:55;42.80;;;20.48;;
38222;SDS011;24024;51.186;6.458;2023-12-14T06:06:24;45.20;;;21.75;;
38222;SDS011;24024;51.186;6.458;2023-12-14T06:08:53;44.00;;;19.65;;
38222;SDS011;24024;51.186;6.458;2023-12-14T06:11:19;50.95;;;22.58;;
38222;SDS011;24024;51.186;6.458;2023-12-14T06:13:46;48.33;;;23.23;;
38222;SDS011;24024;51.186;6.458;2023-12-14T06:16:13;46.85;;;21.95;;
38222;SDS011;24024;51.186;6.458;2023-12-14T06:18:42;48.50;;;22.30;;
38222;SDS011;24024;51.186;6.458;2023-12-14T06:21:12;51.30;;;23.83;;
38222;SDS011;24024;51.186;6.458;2023-12-14T06:23:39;55.35;;;24.60;;
38222;SDS011;24024;51.186;6.458;2023-12-14T06:26:08;53.65;;;24.95;;
38222;SDS011;24024;51.186;6.458;2023-12-14T06:28:35;50.67;;;23.63;;
38222;SDS011;24024;51.186;6.458;2023-12-14T06:31:02;49.55;;;24.25;;
38222;SDS011;24024;51.186;6.458;2023-12-14T06:33:29;50.80;;;23.95;;
38222;SDS011;24024;51.186;6.458;2023-12-14T06:35:57;51.97;;;24.13;;
38222;SDS011;24024;51.186;6.458;2023-12-14T06:38:28;50.70;;;24.80;;
38222;SDS011;24024;51.186;6.458;2023-12-14T06:40:55;47.65;;;23.05;;
38222;SDS011;24024;51.186;6.458;2023-12-14T06:43:22;52.15;;;23.45;;
38222;SDS011;24024;51.186;6.458;2023-12-14T06:45:48;48.20;;;23.73;;
38222;SDS011;24024;51.186;6.458;2023-12-14T06:48:15;48.67;;;22.23;;
38222;SDS011;24024;51.186;6.458;2023-12-14T06:50:42;45.33;;;23.15;;
38222;SDS011;24024;51.186;6.458;2023-12-14T06:53:12;44.28;;;21.48;;
38222;SDS011;24024;51.186;6.458;2023-12-14T06:55:41;44.70;;;22.33;;
38222;SDS011;24024;51.186;6.458;2023-12-14T06:58:10;43.40;;;21.85;;
38222;SDS011;24024;51.186;6.458;2023-12-14T07:00:37;44.72;;;22.50;;
38222;SDS011;24024;51.186;6.458;2023-12-14T07:03:04;43.40;;;22.02;;
38222;SDS011;24024;51.186;6.458;2023-12-14T07:05:31;48.97;;;21.83;;
38222;SDS011;24024;51.186;6.458;2023-12-14T07:07:59;43.33;;;22.65;;
38222;SDS011;24024;51.186;6.458;2023-12-14T07:10:28;46.25;;;22.20;;
38222;SDS011;24024;51.186;6.458;2023-12-14T07:12:55;43.72;;;21.55;;
38222;SDS011;24024;51.186;6.458;2023-12-14T07:15:21;42.70;;;21.95;;
38222;SDS011;24024;51.186;6.458;2023-12-14T07:17:50;39.83;;;20.75;;
38222;SDS011;24024;51.186;6.458;2023-12-14T07:20:17;38.47;;;21.30;;
38222;SDS011;24024;51.186;6.458;2023-12-14T07:22:46;40.65;;;21.30;;
38222;SDS011;24024;51.186;6.458;2023-12-14T07:25:13;42.15;;;22.25;;
38222;SDS011;24024;51.186;6.458;2023-12-14T07:27:40;42.78;;;22.17;;
38222;SDS011;24024;51.186;6.458;2023-12-14T07:30:07;44.75;;;22.02;;
38222;SDS011;24024;51.186;6.458;2023-12-14T07:32:35;45.97;;;22.50;;
38222;SDS011;24024;51.186;6.458;2023-12-14T07:35:02;41.60;;;22.30;;
38222;SDS011;24024;51.186;6.458;2023-12-14T07:37:30;41.10;;;21.90;;
38222;SDS011;24024;51.186;6.458;2023-12-14T07:39:59;43.28;;;21.58;;
38222;SDS011;24024;51.186;6.458;2023-12-14T07:42:29;42.17;;;22.33;;
38222;SDS011;24024;51.186;6.458;2023-12-14T07:44:56;39.13;;;21.58;;
38222;SDS011;24024;51.186;6.458;2023-12-14T07:47:22;37.42;;;20.25;;
38222;SDS011;24024;51.186;6.458;2023-12-14T07:49:49;41.03;;;22.15;;
38222;SDS011;24024;51.186;6.458;2023-12-14T07:52:16;40.28;;;22.08;;
38222;SDS011;24024;51.186;6.458;2023-12-14T07:54:43;39.72;;;21.88;;
38222;SDS011;24024;51.186;6.458;2023-12-14T07:57:10;39.20;;;21.05;;
38222;SDS011;24024;51.186;6.458;2023-12-14T07:59:37;41.10;;;21.45;;
38222;SDS011;24024;51.186;6.458;2023-12-14T08:02:03;40.88;;;22.80;;
38222;SDS011;24024;51.186;6.458;2023-12-14T08:04:30;38.88;;;21.55;;
38222;SDS011;24024;51.186;6.458;2023-12-14T08:06:59;37.15;;;21.02;;
38222;SDS011;24024;51.186;6.458;2023-12-14T08:09:26;38.35;;;21.67;;
38222;SDS011;24024;51.186;6.458;2023-12-14T08:11:53;38.95;;;22.08;;
38222;SDS011;24024;51.186;6.458;2023-12-14T08:14:22;39.08;;;21.85;;
38222;SDS011;24024;51.186;6.458;2023-12-14T08:16:49;38.75;;;20.63;;
38222;SDS011;24024;51.186;6.458;2023-12-14T08:19:15;42.05;;;21.80;;
38222;SDS011;24024;51.186;6.458;2023-12-14T08:21:44;40.63;;;22.05;;
38222;SDS011;24024;51.186;6.458;2023-12-14T08:24:13;35.13;;;20.02;;
38222;SDS011;24024;51.186;6.458;2023-12-14T08:26:40;36.25;;;20.13;;
38222;SDS011;24024;51.186;6.458;2023-12-14T08:29:07;37.33;;;19.52;;
38222;SDS011;24024;51.186;6.458;2023-12-14T08:31:34;36.85;;;21.05;;
38222;SDS011;24024;51.186;6.458;2023-12-14T08:34:04;38.65;;;21.88;;
38222;SDS011;24024;51.186;6.458;2023-12-14T08:36:31;35.33;;;19.92;;
38222;SDS011;24024;51.186;6.458;2023-12-14T08:38:58;35.70;;;20.25;;
38222;SDS011;24024;51.186;6.458;2023-12-14T08:41:24;38.15;;;19.95;;
38222;SDS011;24024;51.186;6.458;2023-12-14T08:43:51;35.28;;;19.95;;
38222;SDS011;24024;51.186;6.458;2023-12-14T08:46:21;32.83;;;19.65;;
38222;SDS011;24024;51.186;6.458;2023-12-14T08:48:49;34.88;;;19.15;;
38222;SDS011;24024;51.186;6.458;2023-12-14T08:51:15;36.35;;;20.95;;
38222;SDS011;24024;51.186;6.458;2023-12-14T08:53:43;34.25;;;20.10;;
38222;SDS011;24024;51.186;6.458;2023-12-14T08:56:10;35.85;;;19.95;;
38222;SDS011;24024;51.186;6.458;2023-12-14T08:58:37;38.47;;;20.08;;
38222;SDS011;24024;51.186;6.458;2023-12-14T09:01:03;35.80;;;20.42;;
38222;SDS011;24024;51.186;6.458;2023-12-14T09:03:30;34.53;;;20.35;;
38222;SDS011;24024;51.186;6.458;2023-12-14T09:05:57;36.40;;;20.05;;
38222;SDS011;24024;51.186;6.458;2023-12-14T09:08:29;37.22;;;20.27;;
38222;SDS011;24024;51.186;6.458;2023-12-14T09:10:55;34.67;;;20.27;;
38222;SDS011;24024;51.186;6.458;2023-12-14T09:13:27;31.85;;;18.90;;
38222;SDS011;24024;51.186;6.458;2023-12-14T09:15:56;33.45;;;19.13;;
38222;SDS011;24024;51.186;6.458;2023-12-14T09:18:23;32.85;;;19.77;;
38222;SDS011;24024;51.186;6.458;2023-12-14T09:20:50;31.85;;;19.65;;
38222;SDS011;24024;51.186;6.458;2023-12-14T09:23:17;31.98;;;18.20;;
38222;SDS011;24024;51.186;6.458;2023-12-14T09:25:45;30.52;;;19.00;;
38222;SDS011;24024;51.186;6.458;2023-12-14T09:28:12;31.83;;;18.48;;
38222;SDS011;24024;51.186;6.458;2023-12-14T09:30:39;31.02;;;17.80;;
38222;SDS011;24024;51.186;6.458;2023-12-14T09:33:05;31.75;;;19.50;;
38222;SDS011;24024;51.186;6.458;2023-12-14T09:35:35;31.70;;;19.40;;
38222;SDS011;24024;51.186;6.458;2023-12-14T09:38:05;33.47;;;19.50;;
38222;SDS011;24024;51.186;6.458;2023-12-14T09:40:33;31.40;;;18.52;;
38222;SDS011;24024;51.186;6.458;2023-12-14T09:43:01;31.45;;;18.23;;
38222;SDS011;24024;51.186;6.458;2023-12-14T09:45:31;32.60;;;19.05;;
38222;SDS011;24024;51.186;6.458;2023-12-14T09:47:57;29.00;;;18.58;;
38222;SDS011;24024;51.186;6.458;2023-12-14T09:50:27;32.63;;;18.40;;
38222;SDS011;24024;51.186;6.458;2023-12-14T09:52:54;29.83;;;18.88;;
38222;SDS011;24024;51.186;6.458;2023-12-14T09:55:21;36.00;;;19.95;;
38222;SDS011;24024;51.186;6.458;2023-12-14T09:57:48;30.85;;;18.80;;
38222;SDS011;24024;51.186;6.458;2023-12-14T10:00:32;32.00;;;19.80;;
38222;SDS011;24024;51.186;6.458;2023-12-14T10:05:50;35.63;;;20.23;;
38222;SDS011;24024;51.186;6.458;2023-12-14T10:08:17;31.20;;;18.73;;
38222;SDS011;24024;51.186;6.458;2023-12-14T10:10:49;32.47;;;19.25;;
38222;SDS011;24024;51.186;6.458;2023-12-14T10:13:19;33.05;;;19.75;;
38222;SDS011;24024;51.186;6.458;2023-12-14T10:15:47;31.77;;;18.85;;
38222;SDS011;24024;51.186;6.458;2023-12-14T10:18:24;31.15;;;18.58;;
38222;SDS011;24024;51.186;6.458;2023-12-14T10:20:54;32.78;;;19.35;;
38222;SDS011;24024;51.186;6.458;2023-12-14T10:23:24;35.17;;;19.77;;
38222;SDS011;24024;51.186;6.458;2023-12-14T10:25:52;32.40;;;18.13;;
38222;SDS011;24024;51.186;6.458;2023-12-14T10:28:22;32.80;;;19.15;;
38222;SDS011;24024;51.186;6.458;2023-12-14T10:30:49;28.88;;;17.42;;
38222;SDS011;24024;51.186;6.458;2023-12-14T10:33:16;30.98;;;18.08;;
38222;SDS011;24024;51.186;6.458;2023-12-14T10:35:45;28.38;;;15.95;;
38222;SDS011;24024;51.186;6.458;2023-12-14T10:38:14;27.42;;;16.17;;
38222;SDS011;24024;51.186;6.458;2023-12-14T10:40:43;25.92;;;15.70;;
38222;SDS011;24024;51.186;6.458;2023-12-14T10:43:11;32.80;;;17.60;;
38222;SDS011;24024;51.186;6.458;2023-12-14T10:45:52;27.67;;;16.92;;
38222;SDS011;24024;51.186;6.458;2023-12-14T10:48:21;28.83;;;16.50;;
38222;SDS011;24024;51.186;6.458;2023-12-14T10:50:48;29.65;;;17.63;;
38222;SDS011;24024;51.186;6.458;2023-12-14T10:53:17;28.70;;;16.70;;
38222;SDS011;24024;51.186;6.458;2023-12-14T10:55:47;28.95;;;16.77;;
38222;SDS011;24024;51.186;6.458;2023-12-14T10:58:19;33.55;;;18.67;;
38222;SDS011;24024;51.186;6.458;2023-12-14T11:00:57;33.42;;;18.02;;
38222;SDS011;24024;51.186;6.458;2023-12-14T11:03:33;29.08;;;17.70;;
38222;SDS011;24024;51.186;6.458;2023-12-14T11:06:01;27.30;;;16.88;;
38222;SDS011;24024;51.186;6.458;2023-12-14T11:08:41;30.67;;;17.08;;
38222;SDS011;24024;51.186;6.458;2023-12-14T11:11:10;27.92;;;17.15;;
38222;SDS011;24024;51.186;6.458;2023-12-14T11:13:39;29.02;;;18.00;;
38222;SDS011;24024;51.186;6.458;2023-12-14T11:16:07;25.90;;;15.57;;
38222;SDS011;24024;51.186;6.458;2023-12-14T11:18:37;27.23;;;16.00;;
38222;SDS011;24024;51.186;6.458;2023-12-14T11:21:07;23.73;;;14.95;;
38222;SDS011;24024;51.186;6.458;2023-12-14T11:23:37;25.40;;;15.27;;
38222;SDS011;24024;51.186;6.458;2023-12-14T11:26:06;24.60;;;14.93;;
38222;SDS011;24024;51.186;6.458;2023-12-14T11:28:36;25.23;;;14.90;;
38222;SDS011;24024;51.186;6.458;2023-12-14T11:31:07;27.20;;;15.50;;
38222;SDS011;24024;51.186;6.458;2023-12-14T11:33:36;23.38;;;14.00;;
38222;SDS011;24024;51.186;6.458;2023-12-14T11:36:10;22.58;;;14.07;;
38222;SDS011;24024;51.186;6.458;2023-12-14T11:38:41;24.08;;;14.40;;
38222;SDS011;24024;51.186;6.458;2023-12-14T11:41:08;27.67;;;14.52;;
38222;SDS011;24024;51.186;6.458;2023-12-14T11:43:41;25.73;;;14.25;;
38222;SDS011;24024;51.186;6.458;2023-12-14T11:46:10;23.98;;;13.15;;
38222;SDS011;24024;51.186;6.458;2023-12-14T11:48:37;25.85;;;14.30;;
38222;SDS011;24024;51.186;6.458;2023-12-14T11:51:04;24.90;;;13.70;;
38222;SDS011;24024;51.186;6.458;2023-12-14T11:53:31;24.00;;;12.85;;
38222;SDS011;24024;51.186;6.458;2023-12-14T11:56:00;22.17;;;13.30;;
38222;SDS011;24024;51.186;6.458;2023-12-14T11:58:29;22.23;;;13.05;;
38222;SDS011;24024;51.186;6.458;2023-12-14T12:01:15;21.40;;;12.48;;
38222;SDS011;24024;51.186;6.458;2023-12-14T12:03:47;24.85;;;13.57;;
38222;SDS011;24024;51.186;6.458;2023-12-14T12:06:23;20.40;;;12.13;;
38222;SDS011;24024;51.186;6.458;2023-12-14T12:08:59;20.35;;;11.65;;
38222;SDS011;24024;51.186;6.458;2023-12-14T12:11:25;19.95;;;11.60;;
38222;SDS011;24024;51.186;6.458;2023-12-14T12:13:57;20.30;;;11.23;;
38222;SDS011;24024;51.186;6.458;2023-12-14T12:16:26;21.85;;;12.55;;
38222;SDS011;24024;51.186;6.458;2023-12-14T12:18:53;19.83;;;11.43;;
38222;SDS011;24024;51.186;6.458;2023-12-14T12:21:22;19.88;;;12.23;;
38222;SDS011;24024;51.186;6.458;2023-12-14T12:23:48;16.88;;;9.95;;
38222;SDS011;24024;51.186;6.458;2023-12-14T12:26:15;18.35;;;10.27;;
38222;SDS011;24024;51.186;6.458;2023-12-14T12:28:42;20.40;;;10.30;;
38222;SDS011;24024;51.186;6.458;2023-12-14T12:31:14;17.25;;;9.68;;
38222;SDS011;24024;51.186;6.458;2023-12-14T12:33:41;19.77;;;10.00;;
38222;SDS011;24024;51.186;6.458;2023-12-14T12:36:10;18.27;;;10.18;;
38222;SDS011;24024;51.186;6.458;2023-12-14T12:38:37;15.27;;;8.90;;
38222;SDS011;24024;51.186;6.458;2023-12-14T12:41:06;17.30;;;9.55;;
38222;SDS011;24024;51.186;6.458;2023-12-14T12:43:33;17.75;;;9.70;;
38222;SDS011;24024;51.186;6.458;2023-12-14T12:46:00;17.30;;;10.02;;
38222;SDS011;24024;51.186;6.458;2023-12-14T12:48:29;18.13;;;10.38;;
38222;SDS011;24024;51.186;6.458;2023-12-14T12:50:56;16.60;;;8.93;;
38222;SDS011;24024;51.186;6.458;2023-12-14T12:53:23;17.92;;;8.85;;
38222;SDS011;24024;51.186;6.458;2023-12-14T12:55:50;16.75;;;8.98;;
38222;SDS011;24024;51.186;6.458;2023-12-14T12:58:20;16.63;;;9.40;;
38222;SDS011;24024;51.186;6.458;2023-12-14T13:00:46;15.30;;;8.88;;
38222;SDS011;24024;51.186;6.458;2023-12-14T13:03:13;16.70;;;9.43;;
38222;SDS011;24024;51.186;6.458;2023-12-14T13:05:40;16.27;;;9.50;;
38222;SDS011;24024;51.186;6.458;2023-12-14T13:08:09;17.48;;;9.35;;
38222;SDS011;24024;51.186;6.458;2023-12-14T13:10:38;17.17;;;9.25;;
38222;SDS011;24024;51.186;6.458;2023-12-14T13:13:05;18.58;;;10.20;;
38222;SDS011;24024;51.186;6.458;2023-12-14T13:15:37;21.45;;;10.75;;
38222;SDS011;24024;51.186;6.458;2023-12-14T13:18:05;18.95;;;9.85;;
38222;SDS011;24024;51.186;6.458;2023-12-14T13:20:32;20.08;;;10.73;;
38222;SDS011;24024;51.186;6.458;2023-12-14T13:23:01;17.77;;;10.15;;
38222;SDS011;24024;51.186;6.458;2023-12-14T13:25:29;16.67;;;9.70;;
38222;SDS011;24024;51.186;6.458;2023-12-14T13:28:06;18.27;;;10.18;;
38222;SDS011;24024;51.186;6.458;2023-12-14T13:30:33;22.13;;;10.43;;
38222;SDS011;24024;51.186;6.458;2023-12-14T13:33:02;20.38;;;11.90;;
38222;SDS011;24024;51.186;6.458;2023-12-14T13:35:30;18.83;;;10.38;;
38222;SDS011;24024;51.186;6.458;2023-12-14T13:37:57;18.70;;;10.32;;
38222;SDS011;24024;51.186;6.458;2023-12-14T13:40:26;18.63;;;10.32;;
38222;SDS011;24024;51.186;6.458;2023-12-14T13:42:53;18.58;;;9.77;;
38222;SDS011;24024;51.186;6.458;2023-12-14T13:45:33;20.45;;;10.10;;
38222;SDS011;24024;51.186;6.458;2023-12-14T13:47:59;17.50;;;10.05;;
38222;SDS011;24024;51.186;6.458;2023-12-14T13:50:29;16.92;;;9.80;;
38222;SDS011;24024;51.186;6.458;2023-12-14T13:52:56;18.17;;;10.55;;
38222;SDS011;24024;51.186;6.458;2023-12-14T13:55:25;19.38;;;10.77;;
38222;SDS011;24024;51.186;6.458;2023-12-14T13:57:54;17.35;;;10.23;;
38222;SDS011;24024;51.186;6.458;2023-12-14T14:00:24;18.30;;;9.75;;
38222;SDS011;24024;51.186;6.458;2023-12-14T14:02:51;18.38;;;11.02;;
38222;SDS011;24024;51.186;6.458;2023-12-14T14:05:18;20.60;;;11.30;;
38222;SDS011;24024;51.186;6.458;2023-12-14T14:07:45;18.90;;;10.55;;
38222;SDS011;24024;51.186;6.458;2023-12-14T14:10:14;19.55;;;11.57;;
38222;SDS011;24024;51.186;6.458;2023-12-14T14:12:43;20.08;;;10.77;;
38222;SDS011;24024;51.186;6.458;2023-12-14T14:15:11;17.45;;;10.32;;
38222;SDS011;24024;51.186;6.458;2023-12-14T14:17:38;16.52;;;10.07;;
38222;SDS011;24024;51.186;6.458;2023-12-14T14:20:07;19.40;;;10.57;;
38222;SDS011;24024;51.186;6.458;2023-12-14T14:22:36;20.00;;;10.30;;
38222;SDS011;24024;51.186;6.458;2023-12-14T14:25:05;22.45;;;11.65;;
38222;SDS011;24024;51.186;6.458;2023-12-14T14:27:35;20.13;;;11.32;;
38222;SDS011;24024;51.186;6.458;2023-12-14T14:30:02;19.75;;;11.65;;
38222;SDS011;24024;51.186;6.458;2023-12-14T14:32:30;22.23;;;12.40;;